Time;durP1;ratioP1;P1;durP2;ratioP2;P2;SDS_P1;SDS_P2;PMS_P1;PMS_P2;Temp;Humidity;BMP_temperature;BMP_pressure;BME280_temperature;BME280_humidity;BME280_pressure;Samples;Min_cycle;Max_cycle;Signal;HPM_P1;HPM_P2
2022/07/21 00:00:35;;;;;;;13.38;11.00;;;;;;;21.91;67.22;101675.56;5010079;28;20036;-62
2022/07/21 00:03:01;;;;;;;13.75;10.88;;;;;;;21.93;67.02;101676.41;5007936;28;20619;-62
2022/07/21 00:05:27;;;;;;;14.00;11.55;;;;;;;21.87;67.10;101672.94;5009922;28;20501;-62
2022/07/21 00:07:53;;;;;;;14.57;11.40;;;;;;;21.82;66.88;101673.88;5009073;28;20026;-62
2022/07/21 00:10:22;;;;;;;13.57;11.40;;;;;;;21.80;67.45;101673.03;5009210;28;20030;-62
2022/07/21 00:12:48;;;;;;;13.98;11.52;;;;;;;21.75;67.28;101678.34;5008017;28;20170;-62
2022/07/21 00:15:15;;;;;;;13.52;11.32;;;;;;;21.73;67.79;101680.16;5007865;28;20090;-62
2022/07/21 00:17:41;;;;;;;13.75;11.57;;;;;;;21.68;67.23;101668.69;5007818;28;20077;-62
2022/07/21 00:20:08;;;;;;;12.68;10.52;;;;;;;21.69;66.95;101673.97;5009600;28;20065;-62
2022/07/21 00:22:33;;;;;;;14.43;11.27;;;;;;;21.69;67.63;101673.97;5007862;28;20080;-62
2022/07/21 00:24:59;;;;;;;13.32;10.77;;;;;;;21.65;67.70;101682.00;5009316;28;20034;-62
2022/07/21 00:27:25;;;;;;;13.45;10.85;;;;;;;21.64;67.32;101683.78;5008196;28;20032;-62
2022/07/21 00:29:50;;;;;;;15.75;11.57;;;;;;;21.59;67.15;101680.25;5007254;28;20116;-62
2022/07/21 00:32:16;;;;;;;12.77;10.95;;;;;;;21.60;67.77;101684.69;5008166;28;20550;-62
2022/07/21 00:34:41;;;;;;;14.77;11.35;;;;;;;21.52;68.19;101679.47;5010468;28;20092;-62
2022/07/21 00:37:07;;;;;;;13.35;11.02;;;;;;;21.55;67.38;101681.19;5009515;28;20473;-62
2022/07/21 00:39:32;;;;;;;14.43;11.77;;;;;;;21.53;68.51;101682.97;5009694;28;20029;-62
2022/07/21 00:41:57;;;;;;;14.52;11.75;;;;;;;21.48;68.48;101674.16;5007814;28;20476;-62
2022/07/21 00:44:25;;;;;;;14.80;11.77;;;;;;;21.49;67.78;101678.56;5005806;28;20029;-62
2022/07/21 00:46:52;;;;;;;15.75;11.45;;;;;;;21.49;68.34;101678.56;5008053;28;20030;-62
2022/07/21 00:49:17;;;;;;;13.73;11.98;;;;;;;21.49;68.28;101671.50;5010195;28;20037;-62
2022/07/21 00:51:43;;;;;;;14.88;11.50;;;;;;;21.46;68.16;101671.50;5009228;28;20029;-62
2022/07/21 00:54:08;;;;;;;13.80;11.57;;;;;;;21.49;67.80;101674.16;5010195;28;20132;-62
2022/07/21 00:56:34;;;;;;;14.98;11.90;;;;;;;21.45;67.91;101676.81;5008361;28;20496;-62
2022/07/21 00:59:00;;;;;;;14.23;11.82;;;;;;;21.40;68.38;101678.66;5009529;28;20033;-62
2022/07/21 01:01:25;;;;;;;15.18;12.25;;;;;;;21.41;68.25;101672.47;5005920;28;20030;-62
2022/07/21 01:03:51;;;;;;;16.60;11.82;;;;;;;21.35;68.71;101674.25;5008996;28;20509;-62
2022/07/21 01:06:16;;;;;;;14.00;12.25;;;;;;;21.33;68.32;101662.78;5008522;28;20038;-62
2022/07/21 01:08:42;;;;;;;15.85;12.40;;;;;;;21.32;68.51;101649.53;5008400;28;20121;-62
2022/07/21 01:11:07;;;;;;;16.98;12.77;;;;;;;21.32;68.53;101645.13;5006456;28;20481;-62
2022/07/21 01:13:33;;;;;;;15.60;12.80;;;;;;;21.26;68.74;101647.84;5007647;28;20120;-62
2022/07/21 01:15:58;;;;;;;16.17;13.02;;;;;;;21.22;69.34;101648.75;5010204;28;20073;-62
2022/07/21 01:18:25;;;;;;;16.67;12.75;;;;;;;21.21;68.85;101648.75;5007363;28;20481;-62
2022/07/21 01:20:54;;;;;;;18.00;12.73;;;;;;;21.16;69.00;101644.38;5004550;28;22045;-62
2022/07/21 01:23:21;;;;;;;14.98;12.65;;;;;;;21.11;69.74;101647.94;5012347;28;20038;-62
2022/07/21 01:25:51;;;;;;;16.00;12.32;;;;;;;21.10;69.75;101647.06;5013631;28;20034;-62
2022/07/21 01:28:16;;;;;;;17.92;14.25;;;;;;;21.07;69.49;101638.25;5013710;28;20022;-62
2022/07/21 01:30:42;;;;;;;17.42;13.65;;;;;;;21.06;69.78;101639.13;5011471;28;20028;-62
2022/07/21 01:33:07;;;;;;;17.42;13.57;;;;;;;21.05;69.80;101640.03;5012146;28;20095;-62
2022/07/21 01:35:33;;;;;;;16.52;13.82;;;;;;;21.02;69.94;101647.09;5012643;28;20113;-62
2022/07/21 01:37:59;;;;;;;18.65;13.88;;;;;;;20.97;70.36;101656.88;5013052;28;20026;-62
2022/07/21 01:43:08;;;;;;;15.05;13.30;;;;;;;20.96;70.50;101644.50;5004462;28;20044;-62
2022/07/21 01:45:34;;;;;;;15.32;12.73;;;;;;;20.99;69.76;101643.63;5011758;28;20037;-62
2022/07/21 01:47:59;;;;;;;19.63;13.50;;;;;;;20.93;70.41;101644.53;5011013;28;20026;-62
2022/07/21 01:50:26;;;;;;;16.10;13.23;;;;;;;20.92;70.74;101653.34;5012663;28;20029;-62
2022/07/21 01:52:54;;;;;;;16.70;13.10;;;;;;;20.89;71.21;101650.72;5011128;28;20034;-62
2022/07/21 01:55:19;;;;;;;17.13;13.43;;;;;;;20.88;70.98;101646.31;5010171;28;20052;-62
2022/07/21 01:57:45;;;;;;;16.58;13.65;;;;;;;20.86;70.31;101649.88;5011574;28;20489;-62
2022/07/21 02:00:11;;;;;;;17.77;13.73;;;;;;;20.85;71.19;101654.28;5012253;28;20117;-62
2022/07/21 02:02:36;;;;;;;16.02;12.90;;;;;;;20.80;71.57;101648.16;5010393;28;20097;-62
2022/07/21 02:05:02;;;;;;;15.65;13.00;;;;;;;20.83;71.07;101642.84;5012041;28;20022;-62
2022/07/21 02:07:27;;;;;;;18.42;13.95;;;;;;;20.82;71.08;101649.00;5010921;28;20030;-62
2022/07/21 02:09:53;;;;;;;18.40;13.48;;;;;;;20.80;70.93;101654.31;5010368;28;20137;-62
2022/07/21 02:12:18;;;;;;;17.40;13.70;;;;;;;20.76;70.99;101657.00;5010297;28;20084;-62
2022/07/21 02:14:43;;;;;;;16.95;13.70;;;;;;;20.67;72.33;101664.09;5013104;28;20033;-62
2022/07/21 02:17:09;;;;;;;18.95;14.07;;;;;;;20.67;72.09;101655.28;5012265;28;20069;-62
2022/07/21 02:19:34;;;;;;;20.00;14.95;;;;;;;20.63;72.00;101651.72;5011545;28;20036;-62
2022/07/21 02:21:59;;;;;;;18.83;14.88;;;;;;;20.63;72.53;101641.13;5008522;28;20129;-62
2022/07/21 02:24:25;;;;;;;20.85;14.90;;;;;;;20.61;71.94;101645.56;5010605;28;20083;-61
2022/07/21 02:26:50;;;;;;;19.48;14.88;;;;;;;20.60;72.17;101642.94;5006848;28;20026;-62
2022/07/21 02:29:16;;;;;;;16.98;13.93;;;;;;;20.59;72.54;101649.09;5012614;28;20479;-62
2022/07/21 02:31:41;;;;;;;20.42;14.68;;;;;;;20.58;72.38;101640.28;5010029;28;20036;-62
2022/07/21 02:34:06;;;;;;;20.55;15.52;;;;;;;20.49;72.58;101633.28;5012985;28;20034;-62
2022/07/21 02:36:33;;;;;;;21.02;14.98;;;;;;;20.53;72.67;101635.91;5010579;28;20029;-62
2022/07/21 02:38:58;;;;;;;19.30;14.65;;;;;;;20.51;73.29;101635.91;5009322;28;20520;-62
2022/07/21 02:41:23;;;;;;;20.17;14.95;;;;;;;20.53;72.20;101636.78;5010550;28;20061;-62
2022/07/21 02:43:48;;;;;;;22.38;16.20;;;;;;;20.48;73.58;101630.66;5010644;28;20080;-62
2022/07/21 02:46:14;;;;;;;21.25;15.88;;;;;;;20.48;72.21;101642.09;5012401;28;20026;-62
2022/07/21 02:48:39;;;;;;;21.83;15.57;;;;;;;20.49;73.19;101640.31;5011270;28;20089;-62
2022/07/21 02:51:04;;;;;;;20.95;15.38;;;;;;;20.47;72.98;101635.03;5009817;28;20033;-62
2022/07/21 02:53:30;;;;;;;19.42;15.43;;;;;;;20.48;73.47;101625.34;5011321;28;20524;-62
2022/07/21 02:55:55;;;;;;;20.08;16.27;;;;;;;20.42;73.65;101626.25;5010513;28;20084;-62
2022/07/21 02:58:26;;;;;;;21.10;15.57;;;;;;;20.44;73.13;101626.25;5010839;28;20057;-62
2022/07/21 03:00:52;;;;;;;23.38;15.93;;;;;;;20.46;73.04;101640.34;5007679;28;20080;-62
2022/07/21 03:03:19;;;;;;;22.45;17.45;;;;;;;20.39;74.07;101630.66;5011456;28;20037;-62
2022/07/21 03:05:44;;;;;;;22.83;16.33;;;;;;;20.42;73.58;101639.50;5010126;28;20497;-62
2022/07/21 03:08:10;;;;;;;21.85;16.58;;;;;;;20.43;73.51;101635.94;5011138;28;20077;-62
2022/07/21 03:10:37;;;;;;;23.27;16.20;;;;;;;20.43;73.17;101641.22;5010901;28;20056;-62
2022/07/21 03:13:03;;;;;;;22.50;16.67;;;;;;;20.43;73.29;101637.72;5009161;28;20040;-62
2022/07/21 03:15:29;;;;;;;21.38;16.52;;;;;;;20.42;73.22;101631.56;5010958;28;20100;-62
2022/07/21 03:17:55;;;;;;;25.15;16.63;;;;;;;20.38;73.70;101624.50;5006535;28;20109;-62
2022/07/21 03:20:25;;;;;;;23.80;16.38;;;;;;;20.37;73.48;101624.50;5009508;28;20302;-61
2022/07/21 03:22:50;;;;;;;23.75;17.02;;;;;;;20.36;73.38;101631.56;5009986;28;20485;-62
2022/07/21 03:25:16;;;;;;;26.40;16.95;;;;;;;20.34;73.58;101630.69;5010453;28;20029;-62
2022/07/21 03:27:42;;;;;;;24.30;17.02;;;;;;;20.37;73.48;101627.16;4997497;28;20067;-62
2022/07/21 03:30:09;;;;;;;24.83;16.88;;;;;;;20.33;73.92;101626.28;5009276;28;20034;-62
2022/07/21 03:32:35;;;;;;;23.90;16.95;;;;;;;20.35;73.87;101628.91;5011520;28;20030;-62
2022/07/21 03:35:01;;;;;;;23.40;17.30;;;;;;;20.33;73.38;101631.56;5010543;28;20428;-62
2022/07/21 03:37:26;;;;;;;24.83;17.65;;;;;;;20.33;73.71;101631.56;5010579;28;20029;-62
2022/07/21 03:39:52;;;;;;;26.40;17.10;;;;;;;20.31;73.66;101625.41;5011503;28;20076;-62
2022/07/21 03:42:17;;;;;;;24.20;17.45;;;;;;;20.30;73.41;101629.81;5010139;28;20033;-61
2022/07/21 03:44:43;;;;;;;23.15;16.90;;;;;;;20.31;73.91;101636.00;5007140;28;20041;-62
2022/07/21 03:47:08;;;;;;;24.85;17.33;;;;;;;20.28;73.65;101634.25;5008558;28;20049;-62
2022/07/21 03:49:34;;;;;;;24.52;17.63;;;;;;;20.25;73.90;101634.25;5009633;28;20033;-62
2022/07/21 03:51:59;;;;;;;23.05;17.38;;;;;;;20.24;73.95;101637.78;5010036;28;20038;-62
2022/07/21 03:54:24;;;;;;;25.05;17.45;;;;;;;20.25;73.53;101647.50;5010025;28;20520;-62
2022/07/21 03:56:49;;;;;;;24.67;17.23;;;;;;;20.21;74.73;101643.09;5008345;28;20038;-62
2022/07/21 03:59:15;;;;;;;24.00;16.60;;;;;;;20.21;74.79;101652.81;5007623;28;20849;-62
2022/07/21 04:01:40;;;;;;;24.10;16.90;;;;;;;20.21;74.01;101651.03;5007216;28;20030;-62
2022/07/21 04:04:05;;;;;;;23.90;16.60;;;;;;;20.19;74.32;101649.28;5009971;28;20114;-62
2022/07/21 04:06:31;;;;;;;24.63;16.80;;;;;;;20.21;74.52;101647.53;5010440;28;20033;-62
2022/07/21 04:08:57;;;;;;;23.45;16.98;;;;;;;20.21;74.12;101647.53;5010022;28;20516;-62
2022/07/21 04:11:22;;;;;;;24.05;16.30;;;;;;;20.20;74.11;101651.91;5008444;28;20053;-62
2022/07/21 04:13:47;;;;;;;23.33;16.13;;;;;;;20.19;74.03;101654.56;5008168;28;20026;-62
2022/07/21 04:16:13;;;;;;;21.77;15.65;;;;;;;20.18;74.19;101651.03;5010912;28;20022;-62
2022/07/21 04:18:38;;;;;;;24.52;15.68;;;;;;;20.11;73.94;101651.94;5008259;28;20036;-62
2022/07/21 04:21:03;;;;;;;23.17;16.00;;;;;;;20.10;74.36;101650.19;5010130;28;20104;-62
2022/07/21 04:23:29;;;;;;;22.50;14.55;;;;;;;20.03;74.79;101643.16;5008864;28;20036;-62
2022/07/21 04:25:54;;;;;;;22.45;15.73;;;;;;;20.06;74.05;101645.78;5007450;28;20026;-62
2022/07/21 04:28:20;;;;;;;21.52;15.15;;;;;;;20.08;74.09;101636.97;5009884;28;20645;-61
2022/07/21 04:30:45;;;;;;;23.08;15.07;;;;;;;20.08;74.50;101641.38;5010796;28;20034;-62
2022/07/21 04:33:10;;;;;;;21.83;14.95;;;;;;;20.09;73.92;101632.56;5003974;28;20469;-62
2022/07/21 04:35:36;;;;;;;21.25;14.63;;;;;;;20.08;74.07;101636.09;5007798;28;20108;-62
2022/07/21 04:38:01;;;;;;;22.67;15.10;;;;;;;19.99;75.54;101637.00;5010462;28;20028;-62
2022/07/21 04:40:27;;;;;;;21.52;15.32;;;;;;;19.99;75.82;101631.72;5007744;28;20044;-63
2022/07/21 04:42:52;;;;;;;20.52;14.48;;;;;;;20.02;75.67;101636.13;5010535;28;20033;-63
2022/07/21 04:45:17;;;;;;;20.20;14.63;;;;;;;20.06;75.58;101640.50;5009554;28;20026;-63
2022/07/21 04:47:50;;;;;;;22.25;15.05;;;;;;;20.04;76.17;101639.63;5010544;28;20037;-63
2022/07/21 04:50:17;;;;;;;23.10;15.38;;;;;;;20.00;76.68;101637.88;5008244;28;20021;-63
2022/07/21 04:52:43;;;;;;;23.92;15.82;;;;;;;20.03;75.93;101645.78;5009455;28;20034;-63
2022/07/21 04:55:09;;;;;;;21.40;14.25;;;;;;;20.05;75.96;101650.19;5007301;28;20112;-63
2022/07/21 04:57:39;;;;;;;21.20;15.25;;;;;;;20.05;76.22;101654.63;5008821;28;20044;-63
2022/07/21 05:00:06;;;;;;;22.15;15.02;;;;;;;20.04;76.34;101647.56;5009251;28;20507;-63
2022/07/21 05:02:32;;;;;;;21.83;15.82;;;;;;;20.02;76.38;101649.34;5006267;28;20042;-63
2022/07/21 05:04:57;;;;;;;22.48;14.95;;;;;;;20.02;76.19;101641.41;5008963;28;20032;-63
2022/07/21 05:07:22;;;;;;;23.00;15.93;;;;;;;20.02;77.18;101646.69;5007941;28;20029;-63
2022/07/21 05:09:47;;;;;;;23.38;16.38;;;;;;;20.01;77.55;101650.22;5010069;28;20046;-63
2022/07/21 05:12:13;;;;;;;23.15;15.63;;;;;;;19.93;77.41;101653.75;5007203;28;20113;-63
2022/07/21 05:14:38;;;;;;;24.90;16.38;;;;;;;19.98;76.40;101651.97;5007532;28;20029;-63
2022/07/21 05:17:03;;;;;;;21.65;14.45;;;;;;;19.96;76.63;101648.47;5009452;28;20448;-62
2022/07/21 05:19:29;;;;;;;23.90;15.57;;;;;;;19.95;77.16;101649.34;5008498;28;20433;-63
2022/07/21 05:21:54;;;;;;;26.50;15.50;;;;;;;19.92;76.83;101645.84;5009129;28;20485;-62
2022/07/21 05:24:19;;;;;;;23.40;14.70;;;;;;;19.94;77.59;101647.59;5008073;28;20121;-62
2022/07/21 05:26:45;;;;;;;22.58;14.55;;;;;;;19.95;76.90;101646.69;5007713;28;20253;-62
2022/07/21 05:29:10;;;;;;;23.00;15.27;;;;;;;19.86;76.89;101644.09;5008000;28;20014;-62
2022/07/21 05:31:35;;;;;;;21.67;13.98;;;;;;;19.88;76.80;101639.66;5009331;28;20481;-62
2022/07/21 05:34:01;;;;;;;23.23;14.68;;;;;;;19.86;76.76;101640.56;5007316;28;20048;-62
2022/07/21 05:36:26;;;;;;;21.77;14.95;;;;;;;19.89;76.78;101644.06;5008992;28;20018;-62
2022/07/21 05:38:51;;;;;;;20.83;14.45;;;;;;;19.87;77.16;101637.91;5008991;28;20038;-62
2022/07/21 05:41:16;;;;;;;23.70;14.20;;;;;;;19.87;77.19;101637.00;5006994;28;20080;-63
2022/07/21 05:43:42;;;;;;;20.10;14.65;;;;;;;19.83;76.45;101635.25;5009712;28;20473;-63
2022/07/21 05:46:07;;;;;;;20.38;13.98;;;;;;;19.80;77.45;101639.69;5008860;28;20393;-62
2022/07/21 05:48:33;;;;;;;19.85;14.43;;;;;;;19.83;77.05;101641.44;5008128;28;20153;-62
2022/07/21 05:50:58;;;;;;;23.10;13.88;;;;;;;19.84;77.32;101637.91;5007367;28;20034;-62
2022/07/21 05:53:23;;;;;;;22.63;14.50;;;;;;;19.78;76.67;101638.81;5008161;28;20105;-62
2022/07/21 05:55:48;;;;;;;20.63;14.45;;;;;;;19.80;76.47;101636.16;5007973;28;20049;-62
2022/07/21 05:58:14;;;;;;;21.67;14.13;;;;;;;19.81;77.11;101632.63;5005742;28;20109;-62
2022/07/21 06:00:39;;;;;;;24.35;15.68;;;;;;;19.81;76.95;101640.56;5010051;28;20026;-62
2022/07/21 06:03:04;;;;;;;23.73;15.80;;;;;;;19.78;77.88;101640.53;5005204;28;20058;-62
2022/07/21 06:05:30;;;;;;;24.40;15.95;;;;;;;19.80;77.04;101642.31;5007417;28;20501;-62
2022/07/21 06:07:55;;;;;;;25.73;16.77;;;;;;;19.80;77.82;101636.16;5009174;28;20014;-62
2022/07/21 06:10:20;;;;;;;26.98;17.55;;;;;;;19.81;77.32;101637.91;5011117;28;20026;-63
2022/07/21 06:12:46;;;;;;;25.90;16.00;;;;;;;19.82;77.41;101644.09;5011109;28;20617;-62
2022/07/21 06:15:12;;;;;;;25.10;16.00;;;;;;;19.85;77.89;101650.25;5010087;28;20029;-62
2022/07/21 06:17:43;;;;;;;25.05;16.52;;;;;;;19.88;76.87;101638.78;5012172;28;20037;-62
2022/07/21 06:20:09;;;;;;;31.10;18.27;;;;;;;19.89;77.80;101633.50;5011408;28;20395;-62
2022/07/21 06:22:34;;;;;;;29.55;17.85;;;;;;;19.94;77.80;101630.81;5009940;28;20033;-62
2022/07/21 06:25:00;;;;;;;31.80;17.92;;;;;;;19.94;77.60;101634.38;5009983;28;20022;-62
2022/07/21 06:27:25;;;;;;;35.50;20.48;;;;;;;19.92;78.30;101630.84;5011542;28;20026;-62
2022/07/21 06:29:50;;;;;;;32.47;18.98;;;;;;;20.00;78.84;101630.81;5010565;28;20117;-62
2022/07/21 06:32:16;;;;;;;35.78;20.83;;;;;;;20.01;78.51;101627.28;5009878;28;20026;-62
2022/07/21 06:34:41;;;;;;;33.67;19.95;;;;;;;20.10;78.58;101634.31;5008318;28;20105;-62
2022/07/21 06:37:07;;;;;;;37.33;21.40;;;;;;;20.15;77.85;101627.25;5009567;28;20057;-62
2022/07/21 06:39:32;;;;;;;42.42;22.80;;;;;;;20.18;77.97;101635.16;5010281;28;20052;-62
2022/07/21 06:41:57;;;;;;;35.60;21.63;;;;;;;20.23;76.98;101643.09;5009774;28;20075;-62
2022/07/21 06:44:24;;;;;;;39.70;22.25;;;;;;;20.21;77.08;101643.09;5011674;28;20026;-62
2022/07/21 06:46:50;;;;;;;37.38;22.40;;;;;;;20.27;76.80;101645.72;5012480;28;20026;-62
2022/07/21 06:49:15;;;;;;;34.97;22.15;;;;;;;20.28;76.34;101643.97;5011839;28;20048;-62
2022/07/21 06:51:41;;;;;;;37.55;23.38;;;;;;;20.25;76.64;101647.50;5009838;28;20250;-62
2022/07/21 06:54:06;;;;;;;35.33;22.30;;;;;;;20.28;76.61;101650.13;5010679;28;20352;-62
2022/07/21 06:56:31;;;;;;;34.33;22.15;;;;;;;20.26;77.50;101654.56;5010178;28;20072;-62
2022/07/21 06:58:57;;;;;;;32.85;20.42;;;;;;;20.30;76.57;101648.34;5009969;28;20065;-62
2022/07/21 07:01:22;;;;;;;36.97;21.77;;;;;;;20.32;76.54;101654.53;5011119;28;20108;-62
2022/07/21 07:03:47;;;;;;;37.33;21.55;;;;;;;20.37;76.94;101661.56;5007908;28;20117;-62
2022/07/21 07:06:13;;;;;;;35.90;21.92;;;;;;;20.40;76.91;101672.16;5010486;28;20032;-62
2022/07/21 07:08:39;;;;;;;34.15;20.88;;;;;;;20.38;76.41;101672.16;5007271;28;20124;-62
2022/07/21 07:11:05;;;;;;;38.70;22.23;;;;;;;20.38;75.37;101681.84;5009735;28;20164;-62
2022/07/21 07:13:30;;;;;;;36.85;21.38;;;;;;;20.35;76.18;101684.50;5009464;28;20030;-62
2022/07/21 07:15:55;;;;;;;37.25;21.58;;;;;;;20.33;76.07;101672.19;5011982;28;20053;-62
2022/07/21 07:18:23;;;;;;;33.95;20.05;;;;;;;20.31;75.80;101676.56;5009800;28;20037;-62
2022/07/21 07:20:49;;;;;;;36.65;21.35;;;;;;;20.28;76.31;101670.44;5009048;28;20022;-62
2022/07/21 07:23:14;;;;;;;37.33;20.85;;;;;;;20.26;76.70;101661.59;5002738;28;20091;-62
2022/07/21 07:25:39;;;;;;;34.65;21.23;;;;;;;20.27;76.36;101663.38;5008431;28;20029;-62
2022/07/21 07:28:06;;;;;;;35.85;22.15;;;;;;;20.24;77.91;101661.59;5008587;28;20112;-62
2022/07/21 07:30:32;;;;;;;34.35;21.65;;;;;;;20.27;77.36;101663.38;5011291;28;20473;-62
2022/07/21 07:32:57;;;;;;;35.08;21.00;;;;;;;20.26;77.21;101667.78;5007880;28;20065;-63
2022/07/21 07:35:22;;;;;;;31.92;21.02;;;;;;;20.26;77.29;101666.88;5002888;28;20497;-62
2022/07/21 07:37:48;;;;;;;32.63;20.80;;;;;;;20.26;77.47;101667.78;5007907;28;21519;-62
2022/07/21 07:40:17;;;;;;;37.17;22.23;;;;;;;20.24;77.83;101669.53;5008390;28;20079;-61
2022/07/21 07:42:42;;;;;;;35.42;21.67;;;;;;;20.25;77.79;101658.09;5011500;28;20501;-62
2022/07/21 07:45:08;;;;;;;30.35;19.98;;;;;;;20.20;77.64;101665.13;5007095;28;20036;-62
2022/07/21 07:47:34;;;;;;;32.40;20.75;;;;;;;20.20;78.02;101672.22;5013001;28;20032;-62
2022/07/21 07:50:00;;;;;;;33.80;19.92;;;;;;;20.16;78.32;101671.34;5005059;28;20044;-62
2022/07/21 07:52:28;;;;;;;27.10;16.75;;;;;;;20.11;79.04;101673.13;5008375;28;20029;-61
2022/07/21 07:54:54;;;;;;;24.45;14.10;;;;;;;20.04;79.32;101671.38;5008900;28;20041;-62
2022/07/21 07:57:19;;;;;;;21.50;13.32;;;;;;;19.94;79.40;101670.50;5007588;28;20073;-62
2022/07/21 07:59:44;;;;;;;20.70;13.82;;;;;;;19.90;79.70;101671.38;5007909;28;20081;-61
2022/07/21 08:02:09;;;;;;;19.17;12.50;;;;;;;19.81;80.27;101674.94;5008088;28;20075;-61
2022/07/21 08:04:35;;;;;;;16.55;11.60;;;;;;;19.76;80.31;101669.63;5007859;28;20056;-61
2022/07/21 08:07:01;;;;;;;16.23;11.38;;;;;;;19.70;80.46;101674.06;5009879;28;20477;-61
2022/07/21 08:09:26;;;;;;;17.65;10.65;;;;;;;19.64;81.16;101667.00;5005594;28;20076;-61
2022/07/21 08:11:52;;;;;;;14.60;10.18;;;;;;;19.62;81.46;101672.31;5007672;28;20529;-61
2022/07/21 08:14:18;;;;;;;15.65;10.43;;;;;;;19.61;81.54;101672.28;5008218;28;20030;-62
2022/07/21 08:16:43;;;;;;;16.75;10.77;;;;;;;19.61;81.77;101667.88;5008612;28;20562;-62
2022/07/21 08:19:09;;;;;;;15.07;10.82;;;;;;;19.54;82.45;101670.53;5010824;28;20537;-62
2022/07/21 08:21:35;;;;;;;16.35;11.10;;;;;;;19.56;82.65;101669.63;5008026;28;20060;-62
2022/07/21 08:24:01;;;;;;;14.73;10.93;;;;;;;19.51;83.17;101676.72;5007680;28;20597;-62
2022/07/21 08:26:26;;;;;;;16.90;10.77;;;;;;;19.52;83.04;101670.50;5007484;28;20036;-62
2022/07/21 08:28:53;;;;;;;15.45;10.38;;;;;;;19.54;83.26;101674.06;5009701;28;20022;-62
2022/07/21 08:31:18;;;;;;;16.55;10.20;;;;;;;19.57;83.45;101673.19;5006850;28;20172;-62
2022/07/21 08:33:44;;;;;;;15.00;9.55;;;;;;;19.60;84.23;101667.88;5010425;28;20109;-61
2022/07/21 08:36:10;;;;;;;14.23;10.00;;;;;;;19.63;83.09;101675.81;5005731;28;20532;-61
2022/07/21 08:38:35;;;;;;;12.73;9.25;;;;;;;19.62;83.55;101674.94;5010794;28;20030;-61
2022/07/21 08:41:01;;;;;;;12.40;8.80;;;;;;;19.62;83.58;101680.22;5009258;28;20018;-60
2022/07/21 08:43:26;;;;;;;12.90;9.07;;;;;;;19.67;82.59;101676.69;5008636;28;20026;-61
2022/07/21 08:45:53;;;;;;;14.95;9.57;;;;;;;19.69;82.50;101677.56;5008686;28;20026;-61
2022/07/21 08:48:24;;;;;;;14.05;8.70;;;;;;;19.68;82.96;101683.72;5010062;28;20056;-61
2022/07/21 08:50:49;;;;;;;14.27;9.25;;;;;;;19.69;83.03;101674.94;5004343;28;20034;-61
2022/07/21 08:53:15;;;;;;;13.80;9.45;;;;;;;19.70;83.72;101676.69;5005025;28;20036;-62
2022/07/21 08:55:40;;;;;;;13.38;9.57;;;;;;;19.70;83.63;101674.94;5010317;28;20021;-62
2022/07/21 08:58:11;;;;;;;13.85;9.88;;;;;;;19.69;84.12;101682.88;5008741;28;20105;-62
2022/07/21 09:00:39;;;;;;;12.60;8.93;;;;;;;19.68;84.06;101681.09;5010238;28;20033;-62
2022/07/21 09:03:22;;;;;;;15.57;10.02;;;;;;;19.69;83.04;101685.50;5010217;28;20475;-62
2022/07/21 09:06:07;;;;;;;16.17;10.48;;;;;;;19.67;82.92;101681.97;5009498;28;20030;-61
2022/07/21 09:08:42;;;;;;;15.75;10.75;;;;;;;19.62;83.87;101672.31;5008753;28;20402;-61
2022/07/21 09:11:12;;;;;;;14.38;10.65;;;;;;;19.60;84.01;101681.97;5010193;28;20485;-61
2022/07/21 09:13:38;;;;;;;16.27;10.90;;;;;;;19.62;84.43;101679.34;5007683;28;20168;-58
2022/07/21 09:16:05;;;;;;;14.38;10.60;;;;;;;19.61;83.99;101683.75;5000317;28;20081;-65
2022/07/21 09:18:30;;;;;;;16.42;11.07;;;;;;;19.62;84.46;101688.16;5002438;28;20117;-64
2022/07/21 09:20:55;;;;;;;15.95;11.23;;;;;;;19.66;84.66;101685.50;5003316;28;20109;-61
2022/07/21 09:23:23;;;;;;;15.05;10.52;;;;;;;19.61;84.86;101689.03;5001037;28;20025;-61
2022/07/21 09:25:54;;;;;;;14.95;10.50;;;;;;;19.62;85.13;101692.56;5000742;28;20619;-61
2022/07/21 09:28:28;;;;;;;15.25;10.35;;;;;;;19.58;85.15;101694.31;5006357;28;20036;-63
2022/07/21 09:31:00;;;;;;;14.30;10.40;;;;;;;19.60;85.09;101702.25;4999094;28;20034;-62
2022/07/21 09:33:32;;;;;;;12.80;9.57;;;;;;;19.63;84.87;101699.59;4998949;28;20052;-64
2022/07/21 09:36:14;;;;;;;15.43;11.18;;;;;;;19.64;84.37;101704.91;5006839;28;20551;-64
2022/07/21 09:38:58;;;;;;;13.98;10.95;;;;;;;19.64;84.94;101701.38;5001537;28;20109;-64
2022/07/21 09:41:25;;;;;;;12.82;9.35;;;;;;;19.63;84.37;101712.81;5007239;28;20121;-64
2022/07/21 09:43:52;;;;;;;13.70;9.77;;;;;;;19.63;85.36;101718.13;5003778;28;20026;-64
2022/07/21 09:46:29;;;;;;;12.55;9.23;;;;;;;19.64;84.28;101710.19;5002775;28;20113;-63
2022/07/21 09:48:57;;;;;;;14.30;9.85;;;;;;;19.68;84.45;101710.19;5003640;28;20014;-63
2022/07/21 09:51:28;;;;;;;12.27;9.55;;;;;;;19.60;84.46;101712.84;5007546;28;20676;-62
2022/07/21 09:53:58;;;;;;;12.27;9.27;;;;;;;19.59;84.81;101713.69;5011716;28;20032;-61
2022/07/21 09:56:25;;;;;;;14.55;10.27;;;;;;;19.57;84.68;101711.06;5013505;28;20073;-61
2022/07/21 09:58:53;;;;;;;13.25;9.35;;;;;;;19.60;84.36;101713.69;5012566;28;20035;-61
2022/07/21 10:01:19;;;;;;;12.68;9.68;;;;;;;19.59;84.03;101711.94;5000107;28;20100;-63
2022/07/21 10:03:47;;;;;;;12.77;9.45;;;;;;;19.59;83.84;101716.34;5012965;28;20049;-60
2022/07/21 10:06:14;;;;;;;12.45;8.73;;;;;;;19.56;84.20;101722.50;5013024;28;20026;-61
2022/07/21 10:08:41;;;;;;;11.48;8.48;;;;;;;19.54;83.68;101729.56;5008394;28;20100;-61
2022/07/21 10:11:08;;;;;;;9.50;7.82;;;;;;;19.51;83.67;101733.97;5012300;28;20053;-61
2022/07/21 10:13:33;;;;;;;9.63;7.38;;;;;;;19.48;83.62;101739.25;5012428;28;20040;-61
2022/07/21 10:15:58;;;;;;;9.57;7.88;;;;;;;19.45;84.31;101740.13;5011277;28;20097;-61
2022/07/21 10:18:30;;;;;;;10.13;7.72;;;;;;;19.39;83.83;101737.47;5011649;28;20053;-61
2022/07/21 10:21:18;;;;;;;9.30;7.47;;;;;;;19.41;84.42;101739.25;5012484;28;20083;-61
2022/07/21 10:23:44;;;;;;;11.40;8.10;;;;;;;19.36;84.69;101745.41;5010796;28;20032;-61
2022/07/21 10:26:12;;;;;;;8.82;7.35;;;;;;;19.35;84.19;101746.28;5008076;28;20152;-61
2022/07/21 10:28:38;;;;;;;10.38;8.15;;;;;;;19.32;84.38;101754.19;5009847;28;20042;-61
2022/07/21 10:31:29;;;;;;;10.18;8.23;;;;;;;19.35;83.61;101752.47;5009750;28;20034;-61
2022/07/21 10:33:58;;;;;;;10.75;8.93;;;;;;;19.35;84.40;101756.84;5000829;28;20042;-61
2022/07/21 10:36:26;;;;;;;12.00;9.10;;;;;;;19.39;84.95;101761.25;5005475;28;20572;-61
2022/07/21 10:39:17;;;;;;;13.30;9.73;;;;;;;19.40;84.10;101758.63;5010800;28;20397;-61
2022/07/21 10:41:48;;;;;;;11.25;9.02;;;;;;;19.41;84.05;101760.41;5011425;28;20292;-61
2022/07/21 10:44:32;;;;;;;13.77;10.25;;;;;;;19.39;83.57;101766.56;5011494;28;20453;-62
2022/07/21 10:47:07;;;;;;;12.93;10.02;;;;;;;19.39;84.24;101764.81;5012691;28;20032;-62
2022/07/21 10:49:55;;;;;;;11.88;9.68;;;;;;;19.40;83.58;101763.03;5011520;28;20141;-62
2022/07/21 10:52:38;;;;;;;13.47;9.93;;;;;;;19.37;83.57;101763.91;5011734;28;20060;-62
2022/07/21 10:55:09;;;;;;;13.30;10.10;;;;;;;19.31;84.87;101765.69;5012244;28;20033;-62
2022/07/21 10:57:34;;;;;;;14.27;11.15;;;;;;;19.31;84.77;101769.19;5012287;28;20065;-61
2022/07/21 11:00:18;;;;;;;15.80;11.23;;;;;;;19.33;83.93;101777.13;5012161;28;20083;-61
2022/07/21 11:02:47;;;;;;;17.20;11.50;;;;;;;19.27;83.50;101775.34;5011340;28;20509;-61
2022/07/21 11:05:12;;;;;;;15.30;10.90;;;;;;;19.26;83.43;101776.22;5011937;28;20075;-61
2022/07/21 11:08:16;;;;;;;16.15;10.75;;;;;;;19.22;82.88;101779.72;5012048;28;20503;-61
2022/07/21 11:10:53;;;;;;;15.35;11.07;;;;;;;19.21;82.54;101775.31;5011416;28;20077;-61